Brunette Downs, Australia
Current Conditions -  °F | °C
As of 10:00 PM on Thursday 30 Oct 2014 (Local Time) from YTNK Reporting Station
Clear Clear  
Wind Chill: 88°   Ceiling: Unl
Heat Index: 88°   Visibility: 6mi
Dew Point: 34°   Wind: 6mph
Humidity: 15%   Direction: 80°E
Pressure: 29.83"   Gusts: NA
Location:  18.63°S, 136.03°E
Report Text: YTNK 301300Z AUTO 08005KT 9999 // NCD 31/01 Q1010
Loading
Personal Weather Stations






























Interactive Weather Map
Tropical Storm Tracking
New forecast layout! Learn more

10-Day Weather Forecast

Advertisements
Track Severe Weather on mobile